createdAt,value
2023-04-01T00:02:05.380Z,15.18
2023-04-01T00:04:33.355Z,17.05
2023-04-01T00:07:02.666Z,15.93
2023-04-01T00:09:30.223Z,13.95
2023-04-01T00:11:57.939Z,15.93
2023-04-01T00:14:25.331Z,16.20
2023-04-01T00:16:53.493Z,19.50
2023-04-01T00:19:20.964Z,18.88
2023-04-01T00:21:49.025Z,21.13
2023-04-01T00:24:16.372Z,19.88
2023-04-01T00:26:45.046Z,18.70
2023-04-01T00:29:12.573Z,21.27
2023-04-01T00:31:39.977Z,20.75
2023-04-01T00:34:07.324Z,19.40
2023-04-01T00:36:34.671Z,22.20
2023-04-01T00:39:02.033Z,22.63
2023-04-01T00:41:30.380Z,23.73
2023-04-01T00:44:19.108Z,22.42
2023-04-01T00:46:46.570Z,25.65
2023-04-01T00:49:14.583Z,25.05
2023-04-01T00:51:43.052Z,23.58
2023-04-01T00:54:11.758Z,24.63
2023-04-01T00:56:50.714Z,24.00
2023-04-01T00:59:22.433Z,19.95
2023-04-01T01:01:50.596Z,21.42
2023-04-01T01:04:27.890Z,21.98
2023-04-01T01:07:21.760Z,20.35
2023-04-01T01:10:03.857Z,21.67
2023-04-01T01:12:33.910Z,20.50
2023-04-01T01:15:17.044Z,22.15
2023-04-01T01:20:42.533Z,21.83
2023-04-01T01:23:28.628Z,20.52
2023-04-01T01:26:33.805Z,17.85
2023-04-01T01:29:34.218Z,17.63
2023-04-01T01:32:17.192Z,19.02
2023-04-01T01:35:19.224Z,19.15
2023-04-01T01:37:48.286Z,19.45
2023-04-01T01:40:17.114Z,18.98
2023-04-01T01:42:48.768Z,20.08
2023-04-01T01:45:19.543Z,17.63
2023-04-01T01:47:47.389Z,17.27
2023-04-01T01:50:17.173Z,15.52
2023-04-01T01:52:44.513Z,16.58
2023-04-01T01:55:28.789Z,17.83
2023-04-01T01:57:58.386Z,14.60
2023-04-01T02:00:26.120Z,14.82
2023-04-01T02:02:53.617Z,14.02
2023-04-01T02:05:24.687Z,13.95
2023-04-01T02:07:59.054Z,13.93
2023-04-01T02:10:27.401Z,13.77
2023-04-01T02:12:59.225Z,13.88
2023-04-01T02:15:28.304Z,15.10
2023-04-01T02:17:57.976Z,13.05
2023-04-01T02:20:26.438Z,14.38
2023-04-01T02:22:56.150Z,15.75
2023-04-01T02:25:29.391Z,17.35
2023-04-01T02:27:58.146Z,16.65
2023-04-01T02:30:27.985Z,16.70
2023-04-01T02:32:56.959Z,17.67
2023-04-01T02:35:24.512Z,19.23
2023-04-01T02:37:52.741Z,19.48
2023-04-01T02:40:21.450Z,18.35
2023-04-01T02:42:49.036Z,18.30
2023-04-01T02:45:16.755Z,20.25
2023-04-01T02:47:45.668Z,14.90
2023-04-01T02:50:13.228Z,17.65
2023-04-01T02:52:43.237Z,17.15
2023-04-01T02:55:10.949Z,14.52
2023-04-01T02:57:38.492Z,15.40
2023-04-01T03:00:12.014Z,14.65
2023-04-01T03:02:42.608Z,15.23
2023-04-01T03:05:10.174Z,13.13
2023-04-01T03:07:37.671Z,13.20
2023-04-01T03:10:05.953Z,11.63
2023-04-01T03:12:33.311Z,11.80
2023-04-01T03:15:10.610Z,10.32
2023-04-01T03:17:39.377Z,10.45
2023-04-01T03:20:09.447Z,11.32
2023-04-01T03:22:43.267Z,9.32
2023-04-01T03:25:12.137Z,10.45
2023-04-01T03:27:39.561Z,7.68
2023-04-01T03:30:07.892Z,9.63
2023-04-01T03:32:35.674Z,8.88
2023-04-01T03:35:03.227Z,8.95
2023-04-01T03:37:30.680Z,7.88
2023-04-01T03:39:58.031Z,9.27
2023-04-01T03:42:25.449Z,9.07
2023-04-01T03:44:52.831Z,10.40
2023-04-01T03:47:20.206Z,13.10
2023-04-01T03:49:47.588Z,14.32
2023-04-01T03:52:14.916Z,15.77
2023-04-01T03:54:43.411Z,15.20
2023-04-01T03:57:10.851Z,16.48
2023-04-01T03:59:38.390Z,18.00
2023-04-01T04:02:06.091Z,19.00
2023-04-01T04:04:33.665Z,18.45
2023-04-01T04:07:01.111Z,18.80
2023-04-01T04:09:30.850Z,20.27
2023-04-01T04:11:58.361Z,19.98
2023-04-01T04:14:26.078Z,20.73
2023-04-01T04:16:53.787Z,19.77
2023-04-01T04:19:21.160Z,19.25
2023-04-01T04:21:48.531Z,19.48
2023-04-01T04:24:16.135Z,19.73
2023-04-01T04:26:43.474Z,19.00
2023-04-01T04:29:10.851Z,19.35
2023-04-01T04:31:38.696Z,18.88
2023-04-01T04:34:06.046Z,19.73
2023-04-01T04:36:33.320Z,18.15
2023-04-01T04:39:03.220Z,21.27
2023-04-01T04:41:30.736Z,21.60
2023-04-01T04:43:59.588Z,21.98
2023-04-01T04:46:27.385Z,23.73
2023-04-01T04:48:54.730Z,24.08
2023-04-01T04:51:22.522Z,23.35
2023-04-01T04:53:51.576Z,23.30
2023-04-01T04:56:26.299Z,21.88
2023-04-01T04:58:53.883Z,20.95
2023-04-01T05:01:22.544Z,20.73
2023-04-01T05:03:50.942Z,19.98
2023-04-01T05:06:19.734Z,20.45
2023-04-01T05:08:48.353Z,21.80
2023-04-01T05:11:17.934Z,22.20
2023-04-01T05:13:51.706Z,21.48
2023-04-01T05:16:28.664Z,22.98
2023-04-01T05:19:08.149Z,22.17
2023-04-01T05:21:39.775Z,22.95
2023-04-01T05:24:13.043Z,22.85
2023-04-01T05:26:51.089Z,24.13
2023-04-01T05:29:18.533Z,24.10
2023-04-01T05:31:45.988Z,24.15
2023-04-01T05:34:14.021Z,25.30
2023-04-01T05:36:42.725Z,24.00
2023-04-01T05:39:10.676Z,24.90
2023-04-01T05:41:38.623Z,25.65
2023-04-01T05:44:06.518Z,25.92
2023-04-01T05:46:34.232Z,24.92
2023-04-01T05:49:01.629Z,25.30
2023-04-01T05:51:28.935Z,24.10
2023-04-01T05:53:56.255Z,24.85
2023-04-01T05:56:23.757Z,25.08
2023-04-01T05:59:05.695Z,25.02
2023-04-01T06:01:45.801Z,24.55
2023-04-01T06:04:17.117Z,23.58
2023-04-01T06:06:56.608Z,25.15
2023-04-01T06:09:30.220Z,24.67
2023-04-01T06:12:36.059Z,25.90
2023-04-01T06:15:36.879Z,24.48
2023-04-01T06:18:14.262Z,25.17
2023-04-01T06:21:26.168Z,24.63
2023-04-01T06:24:19.538Z,25.88
2023-04-01T06:29:35.826Z,28.13
2023-04-01T06:32:32.470Z,29.80
2023-04-01T06:35:13.455Z,30.65
2023-04-01T06:38:18.302Z,29.55
2023-04-01T06:41:07.770Z,28.55
2023-04-01T06:43:44.786Z,29.40
2023-04-01T06:46:28.130Z,28.52
2023-04-01T06:49:01.651Z,31.58
2023-04-01T06:51:38.865Z,29.38
2023-04-01T06:54:27.465Z,30.40
2023-04-01T06:57:06.803Z,27.42
2023-04-01T06:59:35.375Z,27.95
2023-04-01T07:02:11.611Z,27.45
2023-04-01T07:04:44.306Z,28.55
2023-04-01T07:07:37.434Z,28.25
2023-04-01T07:10:11.597Z,27.50
2023-04-01T07:12:44.508Z,27.88
2023-04-01T07:17:43.602Z,25.42
2023-04-01T07:20:32.951Z,28.15
2023-04-01T07:23:05.790Z,25.05
2023-04-01T07:28:14.203Z,25.67
2023-04-01T07:30:57.662Z,24.20
2023-04-01T07:33:47.063Z,26.27
2023-04-01T07:36:26.224Z,23.65
2023-04-01T07:39:12.535Z,22.95
2023-04-01T07:41:58.540Z,24.42
2023-04-01T07:44:34.734Z,21.75
2023-04-01T07:47:18.231Z,23.25
2023-04-01T07:50:09.613Z,23.48
2023-04-01T07:52:56.562Z,19.60
2023-04-01T07:55:36.186Z,18.95
2023-04-01T07:58:19.135Z,18.33
2023-04-01T08:01:06.266Z,15.38
2023-04-01T08:03:53.266Z,15.23
2023-04-01T08:06:26.879Z,14.52
2023-04-01T08:09:11.950Z,16.20
2023-04-01T08:12:07.238Z,14.90
2023-04-01T08:15:01.480Z,11.52
2023-04-01T08:17:34.620Z,12.00
2023-04-01T08:20:15.844Z,11.10
2023-04-01T08:23:03.980Z,10.18
2023-04-01T08:25:34.133Z,9.07
2023-04-01T08:28:09.817Z,9.57
2023-04-01T08:30:44.819Z,9.25
2023-04-01T08:33:18.015Z,9.05
2023-04-01T08:36:13.378Z,8.80
2023-04-01T08:39:11.656Z,8.57
2023-04-01T08:41:59.843Z,9.65
2023-04-01T08:44:51.757Z,11.13
2023-04-01T08:47:49.856Z,11.55
2023-04-01T08:50:50.852Z,10.80
2023-04-01T08:53:37.108Z,11.45
2023-04-01T08:56:31.562Z,12.63
2023-04-01T08:58:58.815Z,13.10
2023-04-01T09:02:05.658Z,14.20
2023-04-01T09:04:41.145Z,14.10
2023-04-01T09:07:29.717Z,14.40
2023-04-01T09:09:59.875Z,14.00
2023-04-01T09:12:46.862Z,15.90
2023-04-01T09:15:14.219Z,14.75
2023-04-01T09:18:06.420Z,15.82
2023-04-01T09:21:11.649Z,15.30
2023-04-01T09:23:49.809Z,15.32
2023-04-01T09:26:27.078Z,13.85
2023-04-01T09:29:00.212Z,15.73
2023-04-01T09:32:00.205Z,14.93
2023-04-01T09:34:45.993Z,14.90
2023-04-01T09:37:32.386Z,15.20
2023-04-01T09:40:11.496Z,16.00
2023-04-01T09:43:25.115Z,15.73
2023-04-01T09:46:15.046Z,15.43
2023-04-01T09:48:48.780Z,14.23
2023-04-01T09:51:35.237Z,13.27
2023-04-01T09:54:13.290Z,11.77
2023-04-01T09:57:01.792Z,10.93
2023-04-01T09:59:51.115Z,11.93
2023-04-01T10:02:52.209Z,13.10
2023-04-01T10:05:34.992Z,12.27
2023-04-01T10:10:58.336Z,14.18
2023-04-01T10:13:28.426Z,15.65
2023-04-01T10:16:09.894Z,15.45
2023-04-01T10:19:26.681Z,15.20
2023-04-01T10:22:16.014Z,16.55
2023-04-01T10:24:48.382Z,14.60
2023-04-01T10:27:36.085Z,14.98
2023-04-01T10:30:30.514Z,11.93
2023-04-01T10:33:16.259Z,9.18
2023-04-01T10:36:13.617Z,7.95
2023-04-01T10:39:18.710Z,8.65
2023-04-01T10:42:12.560Z,7.60
2023-04-01T10:44:52.395Z,9.43
2023-04-01T10:47:40.041Z,8.95
2023-04-01T10:50:25.591Z,10.38
2023-04-01T10:53:19.100Z,9.45
2023-04-01T10:56:01.274Z,8.80
2023-04-01T10:58:28.601Z,7.93
2023-04-01T11:01:27.591Z,7.82
2023-04-01T11:04:20.238Z,8.60
2023-04-01T11:06:56.537Z,9.57
2023-04-01T11:09:53.305Z,9.38
2023-04-01T11:12:34.238Z,10.18
2023-04-01T11:15:12.257Z,9.88
2023-04-01T11:18:17.624Z,9.98
2023-04-01T11:21:15.475Z,9.55
2023-04-01T11:24:05.046Z,9.90
2023-04-01T11:27:06.981Z,10.77
2023-04-01T11:30:00.128Z,8.88
2023-04-01T11:32:37.251Z,9.85
2023-04-01T11:35:38.871Z,7.78
2023-04-01T11:38:29.573Z,7.50
2023-04-01T11:41:22.963Z,7.95
2023-04-01T11:46:32.449Z,7.60
2023-04-01T11:49:08.088Z,8.27
2023-04-01T11:51:41.503Z,8.18
2023-04-01T11:54:27.770Z,8.90
2023-04-01T11:57:29.139Z,8.63
2023-04-01T12:00:02.732Z,9.55
2023-04-01T12:03:08.240Z,10.45
2023-04-01T12:05:43.274Z,9.68
2023-04-01T12:08:33.014Z,9.70
2023-04-01T12:11:19.612Z,10.32
2023-04-01T12:14:01.391Z,11.07
2023-04-01T12:17:11.009Z,11.07
2023-04-01T12:20:24.701Z,9.95
2023-04-01T12:23:04.450Z,11.80
2023-04-01T12:25:47.672Z,10.05
2023-04-01T12:28:26.857Z,10.07
2023-04-01T12:31:20.958Z,10.85
2023-04-01T12:34:00.338Z,10.20
2023-04-01T12:37:00.464Z,11.80
2023-04-01T12:39:51.162Z,11.15
2023-04-01T12:42:34.633Z,11.30
2023-04-01T12:45:40.551Z,12.10
2023-04-01T12:48:18.270Z,11.25
2023-04-01T12:51:00.240Z,12.30
2023-04-01T12:53:41.664Z,12.32
2023-04-01T12:56:30.075Z,12.50
2023-04-01T12:59:21.379Z,11.45
2023-04-01T13:02:03.706Z,11.75
2023-04-01T13:04:34.367Z,12.13
2023-04-01T13:07:25.636Z,11.25
2023-04-01T13:10:12.088Z,11.30
2023-04-01T13:12:50.099Z,10.30
2023-04-01T13:15:27.741Z,10.23
2023-04-01T13:18:13.951Z,10.25
2023-04-01T13:21:10.123Z,11.57
2023-04-01T13:23:59.395Z,11.63
2023-04-01T13:26:41.824Z,11.77
2023-04-01T13:29:15.756Z,11.35
2023-04-01T13:32:10.836Z,11.13
2023-04-01T13:34:49.366Z,12.07
2023-04-01T13:37:44.632Z,11.77
2023-04-01T13:40:29.475Z,12.88
2023-04-01T13:43:13.214Z,11.88
2023-04-01T13:46:06.012Z,12.55
2023-04-01T13:48:56.666Z,12.65
2023-04-01T13:52:05.945Z,13.60
2023-04-01T13:54:54.075Z,14.35
2023-04-01T13:57:28.649Z,14.73
2023-04-01T14:00:12.145Z,14.35
2023-04-01T14:02:58.011Z,14.73
2023-04-01T14:05:52.601Z,15.88
2023-04-01T14:08:37.328Z,14.40
2023-04-01T14:11:33.693Z,13.13
2023-04-01T14:14:28.490Z,12.77
2023-04-01T14:17:31.393Z,12.80
2023-04-01T14:20:14.454Z,14.27
2023-04-01T14:25:44.877Z,15.95
2023-04-01T14:28:32.725Z,16.38
2023-04-01T14:31:21.316Z,17.10
2023-04-01T14:34:11.108Z,16.60
2023-04-01T14:36:53.750Z,17.30
2023-04-01T14:39:46.333Z,16.00
2023-04-01T14:42:28.994Z,14.30
2023-04-01T14:45:14.486Z,14.20
2023-04-01T14:48:00.495Z,14.82
2023-04-01T14:50:41.572Z,14.27
2023-04-01T14:53:08.804Z,13.82
2023-04-01T14:55:44.138Z,13.10
2023-04-01T14:58:17.101Z,12.82
2023-04-01T15:01:00.559Z,13.00
2023-04-01T15:03:50.074Z,13.35
2023-04-01T15:06:26.499Z,13.70
2023-04-01T15:09:02.996Z,14.25
2023-04-01T15:11:49.424Z,12.75
2023-04-01T15:14:31.047Z,11.60
2023-04-01T15:17:03.846Z,11.05
2023-04-01T15:19:55.834Z,11.27
2023-04-01T15:22:41.385Z,10.30
2023-04-01T15:25:23.939Z,12.43
2023-04-01T15:28:05.421Z,12.68
2023-04-01T15:30:51.319Z,14.00
2023-04-01T15:33:33.984Z,12.90
2023-04-01T15:36:16.326Z,14.20
2023-04-01T15:38:51.661Z,12.95
2023-04-01T15:41:46.901Z,14.52
2023-04-01T15:44:32.729Z,12.23
2023-04-01T15:47:00.437Z,12.10
2023-04-01T15:49:44.813Z,14.00
2023-04-01T15:52:24.337Z,14.63
2023-04-01T15:55:37.041Z,14.43
2023-04-01T15:58:32.344Z,13.75
2023-04-01T16:01:27.253Z,14.57
2023-04-01T16:04:28.550Z,15.15
2023-04-01T16:06:59.099Z,15.70
2023-04-01T16:09:45.061Z,15.80
2023-04-01T16:12:20.616Z,15.10
2023-04-01T16:15:29.500Z,15.77
2023-04-01T16:18:02.022Z,15.02
2023-04-01T16:21:06.382Z,15.07
2023-04-01T16:23:48.601Z,14.05
2023-04-01T16:26:48.875Z,15.17
2023-04-01T16:29:19.264Z,15.00
2023-04-01T16:31:52.665Z,15.07
2023-04-01T16:34:35.782Z,14.20
2023-04-01T16:39:51.603Z,13.25
2023-04-01T16:42:31.884Z,14.18
2023-04-01T16:45:29.630Z,12.52
2023-04-01T16:48:06.350Z,11.63
2023-04-01T16:50:43.948Z,10.57
2023-04-01T16:53:21.932Z,10.52
2023-04-01T16:56:07.853Z,9.85
2023-04-01T16:58:57.401Z,10.38
2023-04-01T17:01:55.524Z,10.95
2023-04-01T17:04:45.974Z,11.40
2023-04-01T17:07:47.912Z,11.35
2023-04-01T17:10:41.336Z,12.02
2023-04-01T17:13:21.540Z,13.15
2023-04-01T17:16:01.742Z,12.38
2023-04-01T17:18:39.003Z,12.40
2023-04-01T17:21:40.928Z,13.05
2023-04-01T17:24:33.196Z,11.80
2023-04-01T17:27:22.467Z,12.05
2023-04-01T17:30:16.245Z,11.43
2023-04-01T17:32:52.609Z,11.00
2023-04-01T17:35:40.450Z,11.65
2023-04-01T17:38:34.951Z,10.27
2023-04-01T17:41:21.239Z,10.05
2023-04-01T17:44:25.931Z,10.02
2023-04-01T17:47:24.034Z,10.07
2023-04-01T17:50:09.847Z,9.02
2023-04-01T17:52:57.440Z,8.18
2023-04-01T17:56:03.842Z,8.40
2023-04-01T17:58:34.996Z,8.30
2023-04-01T18:01:38.538Z,7.70
2023-04-01T18:07:11.139Z,7.63
2023-04-01T18:09:53.677Z,7.68
2023-04-01T18:12:32.470Z,7.82
2023-04-01T18:15:11.998Z,8.27
2023-04-01T18:18:00.794Z,8.32
2023-04-01T18:20:34.161Z,8.38
2023-04-01T18:23:13.723Z,8.48
2023-04-01T18:25:49.515Z,8.13
2023-04-01T18:28:35.617Z,8.45
2023-04-01T18:31:32.132Z,7.80
2023-04-01T18:34:31.102Z,8.93
2023-04-01T18:37:14.010Z,7.97
2023-04-01T18:39:52.952Z,8.15
2023-04-01T18:42:43.314Z,7.18
2023-04-01T18:45:29.628Z,7.30
2023-04-01T18:48:22.799Z,7.90
2023-04-01T18:51:01.792Z,6.55
2023-04-01T18:53:49.626Z,6.82
2023-04-01T18:56:37.347Z,6.68
2023-04-01T18:59:31.101Z,7.18
2023-04-01T19:02:26.283Z,7.25
2023-04-01T19:05:25.044Z,8.25
2023-04-01T19:07:57.443Z,8.23
2023-04-01T19:10:28.824Z,8.77
2023-04-01T19:13:21.128Z,8.77
2023-04-01T19:16:07.343Z,8.85
2023-04-01T19:18:58.514Z,8.52
2023-04-01T19:21:36.873Z,8.75
2023-04-01T19:24:48.651Z,8.40
2023-04-01T19:27:28.174Z,8.57
2023-04-01T19:30:18.436Z,9.35
2023-04-01T19:33:24.716Z,9.23
2023-04-01T19:36:16.077Z,8.57
2023-04-01T19:39:01.540Z,8.45
2023-04-01T19:41:41.940Z,8.75
2023-04-01T19:44:18.078Z,9.10
2023-04-01T19:46:52.786Z,8.80
2023-04-01T19:49:33.468Z,8.80
2023-04-01T19:52:17.834Z,7.63
2023-04-01T19:55:20.465Z,8.02
2023-04-01T19:57:52.786Z,7.90
2023-04-01T20:00:33.132Z,9.40
2023-04-01T20:03:39.556Z,9.90
2023-04-01T20:06:31.392Z,11.05
2023-04-01T20:09:33.204Z,9.65
2023-04-01T20:12:21.876Z,9.93
2023-04-01T20:14:59.002Z,10.18
2023-04-01T20:17:38.860Z,9.57
2023-04-01T20:20:31.347Z,9.77
2023-04-01T20:23:04.571Z,10.60
2023-04-01T20:26:16.391Z,12.05
2023-04-01T20:29:26.047Z,13.32
2023-04-01T20:32:24.586Z,13.50
2023-04-01T20:35:38.428Z,13.20
2023-04-01T20:38:33.774Z,14.15
2023-04-01T20:41:31.765Z,13.70
2023-04-01T20:44:32.730Z,14.10
2023-04-01T20:47:45.289Z,15.30
2023-04-01T20:50:37.779Z,14.90
2023-04-01T20:53:26.708Z,14.15
2023-04-01T20:55:57.960Z,13.88
2023-04-01T20:58:49.790Z,14.63
2023-04-01T21:01:44.244Z,14.95
2023-04-01T21:04:56.900Z,13.40
2023-04-01T21:07:44.126Z,13.18
2023-04-01T21:10:20.368Z,13.07
2023-04-01T21:13:10.189Z,13.82
2023-04-01T21:16:21.943Z,14.05
2023-04-01T21:19:10.707Z,12.73
2023-04-01T21:21:57.338Z,13.93
2023-04-01T21:24:52.738Z,13.32
2023-04-01T21:27:29.925Z,12.60
2023-04-01T21:30:29.892Z,13.18
2023-04-01T21:33:14.833Z,12.73
2023-04-01T21:36:09.824Z,14.52
2023-04-01T21:39:06.767Z,13.82
2023-04-01T21:41:48.947Z,14.55
2023-04-01T21:44:38.879Z,14.00
2023-04-01T21:47:48.232Z,12.45
2023-04-01T21:50:16.496Z,14.60
2023-04-01T21:52:46.536Z,14.30
2023-04-01T21:55:16.730Z,14.07
2023-04-01T21:57:47.076Z,14.18
2023-04-01T22:00:33.846Z,13.95
2023-04-01T22:03:39.220Z,13.20
2023-04-01T22:06:23.061Z,13.05
2023-04-01T22:09:05.798Z,12.82
2023-04-01T22:11:46.499Z,13.27
2023-04-01T22:14:35.994Z,13.32
2023-04-01T22:17:39.776Z,13.85
2023-04-01T22:20:28.287Z,12.18
2023-04-01T22:23:34.599Z,12.98
2023-04-01T22:26:11.486Z,12.48
2023-04-01T22:29:07.876Z,12.68
2023-04-01T22:31:52.965Z,11.52
2023-04-01T22:34:36.291Z,12.50
2023-04-01T22:37:18.948Z,12.65
2023-04-01T22:40:18.744Z,12.45
2023-04-01T22:43:05.217Z,12.88
2023-04-01T22:45:49.334Z,13.27
2023-04-01T22:48:47.885Z,14.20
2023-04-01T22:51:24.732Z,13.50
2023-04-01T22:54:29.562Z,14.20
2023-04-01T22:57:36.655Z,13.82
2023-04-01T23:00:19.792Z,14.18
2023-04-01T23:03:11.027Z,13.70
2023-04-01T23:05:58.109Z,14.18
2023-04-01T23:09:04.852Z,13.70
2023-04-01T23:11:45.461Z,14.02
2023-04-01T23:14:28.691Z,12.77
2023-04-01T23:17:18.819Z,13.88
2023-04-01T23:20:10.799Z,13.48
2023-04-01T23:23:05.875Z,13.50
2023-04-01T23:26:22.601Z,12.57
2023-04-01T23:28:58.024Z,12.70
2023-04-01T23:31:46.458Z,14.10
2023-04-01T23:34:58.423Z,13.73
2023-04-01T23:37:35.110Z,13.82
2023-04-01T23:40:09.938Z,13.68
2023-04-01T23:42:42.562Z,13.18
2023-04-01T23:45:29.848Z,12.93
2023-04-01T23:47:57.381Z,13.18
2023-04-01T23:50:28.113Z,13.00
2023-04-01T23:53:04.922Z,13.88
2023-04-01T23:55:36.130Z,13.02
2023-04-01T23:58:14.563Z,14.73
